RSJ weather

Rancho San Jose Airport
Teapa, Tabasco, Mexico

Public forecast

Using degrees Celsius for public forecast. Weather courtesy of forecast.io.

METAR (pilot weather report)

Closest report is Carlos Rovirosa Pérez International Airport, 25.8 nm (47.7 km) NNE. Retrieved 2019/06/16 02:42 UTC (4 minutes ago):

MMVA 160242Z 00000KT 6SM FEW015 SCT070 SCT210 26/23 A2989 RMK SLP119 52015 977 8/463 PRESFR DSNT CBS S NE

TAF (pilot weather forecast)

Closest forecast is Carlos Rovirosa Pérez International Airport, 25.8 nm (47.7 km) NNE. Retrieved 2019/06/16 21:19 UTC (0 seconds ago):

TAF COR MMVA 160008Z 1521/1618 12008G18KT 6SM HZ BKN015 BKN030CB BKN200 TEMPO 1522/1602 4SM TSRA BKN015CB FM160300 12005KT 6SM HZ BKN015 OVC080 TEMPO 1603/1607 5SM -RA BKN015CB FM160800 00000KT 5SM HZ BKN015 BKN080 TEMPO 1611/1615 3SM BR HZ